Time;durP1;ratioP1;P1;durP2;ratioP2;P2;SDS_P1;SDS_P2;PMS_P1;PMS_P2;Temp;Humidity;BMP_temperature;BMP_pressure;BME280_temperature;BME280_humidity;BME280_pressure;Samples;Min_cycle;Max_cycle;Signal;HPM_P1;HPM_P2
2021/12/03 00:00:17;;;;;;;0.30;0.30;;;;;;;;;;4973059;28;20209;-72
2021/12/03 00:02:46;;;;;;;0.37;0.33;;;;;;;;;;4972832;28;20562;-77
2021/12/03 00:05:14;;;;;;;0.33;0.33;;;;;;;;;;4969031;28;20294;-77
2021/12/03 00:07:43;;;;;;;0.33;0.30;;;;;;;;;;4956392;28;20633;-76
2021/12/03 00:10:14;;;;;;;0.50;0.50;;;;;;;;;;4966754;28;20569;-75
2021/12/03 00:12:43;;;;;;;1.13;0.20;;;;;;;;;;4977642;28;20194;-79
2021/12/03 00:15:12;;;;;;;0.37;0.37;;;;;;;;;;4976305;28;20206;-76
2021/12/03 00:17:40;;;;;;;0.53;0.30;;;;;;;;;;4977072;28;20304;-77
2021/12/03 00:20:11;;;;;;;0.30;0.30;;;;;;;;;;4978254;28;20201;-77
2021/12/03 00:22:40;;;;;;;0.53;0.53;;;;;;;;;;4976708;28;20594;-77
2021/12/03 00:25:09;;;;;;;0.53;0.33;;;;;;;;;;4977941;28;20221;-74
2021/12/03 00:27:40;;;;;;;0.33;0.30;;;;;;;;;;4975989;28;20286;-75
2021/12/03 00:30:10;;;;;;;0.30;0.30;;;;;;;;;;4977860;28;20206;-77
2021/12/03 00:32:39;;;;;;;0.73;0.47;;;;;;;;;;4968883;28;20202;-75
2021/12/03 00:35:09;;;;;;;0.37;0.30;;;;;;;;;;4976704;28;20206;-77
2021/12/03 00:37:37;;;;;;;0.43;0.40;;;;;;;;;;4977313;28;20225;-78
2021/12/03 00:40:07;;;;;;;0.30;0.30;;;;;;;;;;4976800;28;20202;-77
2021/12/03 00:42:35;;;;;;;0.67;0.47;;;;;;;;;;4977229;28;20285;-76
2021/12/03 00:45:06;;;;;;;0.57;0.30;;;;;;;;;;4976455;28;20199;-77
2021/12/03 00:47:34;;;;;;;0.43;0.43;;;;;;;;;;4976841;28;20219;-76
2021/12/03 00:50:03;;;;;;;0.50;0.50;;;;;;;;;;4976483;28;20601;-76
2021/12/03 00:52:32;;;;;;;0.30;0.30;;;;;;;;;;4976486;28;20202;-75
2021/12/03 00:55:00;;;;;;;0.40;0.30;;;;;;;;;;4975859;28;20730;-76
2021/12/03 00:57:29;;;;;;;0.83;0.40;;;;;;;;;;4977348;28;20234;-77
2021/12/03 00:59:57;;;;;;;0.93;0.50;;;;;;;;;;4977521;28;20210;-76
2021/12/03 01:02:27;;;;;;;0.57;0.50;;;;;;;;;;4974747;28;20226;-78
2021/12/03 01:04:56;;;;;;;1.07;0.70;;;;;;;;;;4972353;28;20205;-77
2021/12/03 01:07:24;;;;;;;1.03;0.67;;;;;;;;;;4977023;28;20243;-77
2021/12/03 01:09:53;;;;;;;0.73;0.57;;;;;;;;;;4976018;28;20208;-77
2021/12/03 01:12:21;;;;;;;1.10;0.77;;;;;;;;;;4975292;28;20232;-77
2021/12/03 01:14:50;;;;;;;0.70;0.50;;;;;;;;;;4975951;28;20656;-76
2021/12/03 01:17:18;;;;;;;1.40;0.73;;;;;;;;;;4975756;28;20224;-75
2021/12/03 01:19:48;;;;;;;1.20;0.57;;;;;;;;;;4975394;28;20204;-78
2021/12/03 01:22:16;;;;;;;0.53;0.53;;;;;;;;;;4976471;28;20222;-78
2021/12/03 01:24:45;;;;;;;0.30;0.30;;;;;;;;;;4975925;28;20226;-76
2021/12/03 01:27:14;;;;;;;0.63;0.47;;;;;;;;;;4976341;28;20226;-76
2021/12/03 01:29:42;;;;;;;0.53;0.40;;;;;;;;;;4975929;28;20207;-76
2021/12/03 01:32:10;;;;;;;0.63;0.53;;;;;;;;;;4963847;28;20211;-75
2021/12/03 01:34:39;;;;;;;0.63;0.47;;;;;;;;;;4976630;28;20232;-76
2021/12/03 01:37:08;;;;;;;1.03;0.63;;;;;;;;;;4975821;28;20636;-78
2021/12/03 01:39:37;;;;;;;1.03;0.73;;;;;;;;;;4976450;28;20209;-77
2021/12/03 01:42:06;;;;;;;0.83;0.60;;;;;;;;;;4974520;28;20205;-74
2021/12/03 01:44:34;;;;;;;1.50;0.67;;;;;;;;;;4976297;28;20221;-75
2021/12/03 01:47:03;;;;;;;1.20;0.53;;;;;;;;;;4975402;28;20232;-76
2021/12/03 01:49:31;;;;;;;0.83;0.50;;;;;;;;;;4970074;28;20260;-77
2021/12/03 01:52:00;;;;;;;0.67;0.40;;;;;;;;;;4975231;28;20209;-78
2021/12/03 01:54:29;;;;;;;0.73;0.57;;;;;;;;;;4976268;28;20207;-77
2021/12/03 01:56:58;;;;;;;0.83;0.60;;;;;;;;;;4975825;28;20279;-75
2021/12/03 01:59:26;;;;;;;1.00;0.53;;;;;;;;;;4976394;28;20270;-76
2021/12/03 02:01:55;;;;;;;1.70;0.53;;;;;;;;;;4974898;28;20207;-76
2021/12/03 02:04:23;;;;;;;0.40;0.30;;;;;;;;;;4974046;28;20258;-76
2021/12/03 02:06:52;;;;;;;0.23;0.23;;;;;;;;;;4975636;28;20246;-77
2021/12/03 02:09:20;;;;;;;0.40;0.40;;;;;;;;;;4974957;28;20351;-75
2021/12/03 02:11:50;;;;;;;0.77;0.63;;;;;;;;;;4974146;28;20195;-73
2021/12/03 02:14:19;;;;;;;0.63;0.50;;;;;;;;;;4969271;28;20300;-75
2021/12/03 02:16:47;;;;;;;0.93;0.50;;;;;;;;;;4967944;28;20278;-78
2021/12/03 02:19:15;;;;;;;1.17;0.63;;;;;;;;;;4975365;28;20247;-76
2021/12/03 02:21:46;;;;;;;0.57;0.50;;;;;;;;;;4973295;28;20261;-75
2021/12/03 02:24:15;;;;;;;0.93;0.53;;;;;;;;;;4975591;28;20233;-77
2021/12/03 02:26:43;;;;;;;0.83;0.53;;;;;;;;;;4975573;28;20310;-73
2021/12/03 02:29:12;;;;;;;0.67;0.53;;;;;;;;;;4975198;28;20211;-79
2021/12/03 02:31:40;;;;;;;0.50;0.50;;;;;;;;;;4966623;28;20200;-75
2021/12/03 02:34:09;;;;;;;0.50;0.47;;;;;;;;;;4956526;29;20200;-79
2021/12/03 02:36:38;;;;;;;0.40;0.40;;;;;;;;;;4973953;28;20626;-74
2021/12/03 02:39:08;;;;;;;0.53;0.50;;;;;;;;;;4975600;28;20210;-76
2021/12/03 02:41:36;;;;;;;0.57;0.40;;;;;;;;;;4964012;28;20221;-77
2021/12/03 02:44:05;;;;;;;0.70;0.67;;;;;;;;;;4955874;28;20223;-76
2021/12/03 02:46:33;;;;;;;1.00;0.67;;;;;;;;;;4973178;28;20219;-80
2021/12/03 02:49:02;;;;;;;1.40;0.70;;;;;;;;;;4962594;28;20207;-77
2021/12/03 02:51:30;;;;;;;0.77;0.73;;;;;;;;;;4968032;28;20210;-75
2021/12/03 02:54:00;;;;;;;1.20;0.57;;;;;;;;;;4975190;28;20256;-78
2021/12/03 02:56:30;;;;;;;1.00;0.73;;;;;;;;;;4974062;28;20231;-76
2021/12/03 02:58:58;;;;;;;0.50;0.50;;;;;;;;;;4972924;28;20250;-77
2021/12/03 03:01:27;;;;;;;0.53;0.43;;;;;;;;;;4972428;28;20215;-74
2021/12/03 03:03:55;;;;;;;0.93;0.73;;;;;;;;;;4975181;28;20215;-81
2021/12/03 03:06:24;;;;;;;0.40;0.40;;;;;;;;;;4973669;28;20236;-75
2021/12/03 03:08:52;;;;;;;0.50;0.50;;;;;;;;;;4974087;28;20203;-76
2021/12/03 03:11:22;;;;;;;0.40;0.37;;;;;;;;;;4970630;28;20261;-77
2021/12/03 03:13:52;;;;;;;0.73;0.60;;;;;;;;;;4974779;28;20207;-78
2021/12/03 03:16:20;;;;;;;1.20;0.67;;;;;;;;;;4968558;28;20231;-77
2021/12/03 03:18:49;;;;;;;0.30;0.30;;;;;;;;;;4965403;28;20202;-78
2021/12/03 03:21:19;;;;;;;0.40;0.40;;;;;;;;;;4973541;28;20202;-77
2021/12/03 03:23:48;;;;;;;0.80;0.80;;;;;;;;;;4974484;28;20223;-76
2021/12/03 03:26:17;;;;;;;1.00;0.87;;;;;;;;;;4972881;28;20230;-77
2021/12/03 03:28:46;;;;;;;1.07;0.83;;;;;;;;;;4974436;28;20204;-76
2021/12/03 03:31:15;;;;;;;0.87;0.70;;;;;;;;;;4971623;28;20208;-78
2021/12/03 03:33:44;;;;;;;0.30;0.30;;;;;;;;;;4974159;28;20258;-75
2021/12/03 03:36:12;;;;;;;1.27;0.90;;;;;;;;;;4974110;28;20378;-77
2021/12/03 03:38:41;;;;;;;0.60;0.57;;;;;;;;;;4974359;28;20687;-78
2021/12/03 03:41:09;;;;;;;0.20;0.20;;;;;;;;;;4973280;28;20204;-75
2021/12/03 03:43:38;;;;;;;0.67;0.67;;;;;;;;;;4973635;28;20705;-75
2021/12/03 03:46:06;;;;;;;0.30;0.30;;;;;;;;;;4967504;28;20579;-78
2021/12/03 03:48:36;;;;;;;0.83;0.73;;;;;;;;;;4974392;28;20202;-75
2021/12/03 03:51:04;;;;;;;1.50;0.70;;;;;;;;;;4974594;28;20607;-75
2021/12/03 03:53:33;;;;;;;0.30;0.30;;;;;;;;;;4973361;28;20203;-74
2021/12/03 03:56:01;;;;;;;0.33;0.30;;;;;;;;;;4970176;28;20635;-76
2021/12/03 03:58:30;;;;;;;0.53;0.53;;;;;;;;;;4974405;28;20288;-78
2021/12/03 04:00:58;;;;;;;0.73;0.60;;;;;;;;;;4972837;28;20208;-77
2021/12/03 04:03:27;;;;;;;1.33;0.97;;;;;;;;;;4973366;28;20199;-77
2021/12/03 04:05:57;;;;;;;1.90;0.93;;;;;;;;;;4973458;28;20210;-76
2021/12/03 04:08:28;;;;;;;0.73;0.73;;;;;;;;;;4974275;28;20210;-76
2021/12/03 04:10:57;;;;;;;0.83;0.70;;;;;;;;;;4973218;28;20210;-76
2021/12/03 04:13:26;;;;;;;1.33;0.70;;;;;;;;;;4972545;28;20601;-74
2021/12/03 04:15:54;;;;;;;0.20;0.20;;;;;;;;;;4972429;28;20210;-77
2021/12/03 04:18:23;;;;;;;0.57;0.57;;;;;;;;;;4973086;28;20245;-77
2021/12/03 04:20:52;;;;;;;0.87;0.70;;;;;;;;;;4972788;28;20211;-74
2021/12/03 04:23:22;;;;;;;0.43;0.43;;;;;;;;;;4973070;28;20278;-73
2021/12/03 04:25:51;;;;;;;1.60;0.77;;;;;;;;;;4972878;28;20224;-74
2021/12/03 04:28:20;;;;;;;1.13;0.73;;;;;;;;;;4973457;28;20197;-76
2021/12/03 04:30:50;;;;;;;0.60;0.50;;;;;;;;;;4972558;28;20280;-77
2021/12/03 04:33:19;;;;;;;1.50;1.20;;;;;;;;;;4971842;28;20665;-73
2021/12/03 04:35:47;;;;;;;0.50;0.50;;;;;;;;;;4970764;28;20689;-74
2021/12/03 04:38:16;;;;;;;0.83;0.70;;;;;;;;;;4973312;28;20253;-75
2021/12/03 04:40:46;;;;;;;0.93;0.73;;;;;;;;;;4973435;28;20212;-77
2021/12/03 04:43:15;;;;;;;1.13;0.77;;;;;;;;;;4971832;28;20209;-74
2021/12/03 04:45:43;;;;;;;0.53;0.43;;;;;;;;;;4973559;28;20623;-75
2021/12/03 04:48:12;;;;;;;0.53;0.50;;;;;;;;;;4973159;28;20315;-75
2021/12/03 04:50:41;;;;;;;0.93;0.67;;;;;;;;;;4973457;28;20200;-78
2021/12/03 04:53:10;;;;;;;1.70;1.00;;;;;;;;;;4968871;28;20682;-75
2021/12/03 04:55:39;;;;;;;2.20;0.93;;;;;;;;;;4975083;28;20211;-77
2021/12/03 04:58:09;;;;;;;1.20;0.77;;;;;;;;;;4976300;28;20223;-74
2021/12/03 05:00:38;;;;;;;0.40;0.40;;;;;;;;;;4975909;28;20212;-78
2021/12/03 05:03:08;;;;;;;1.50;1.13;;;;;;;;;;4976585;28;20208;-75
2021/12/03 05:05:36;;;;;;;0.67;0.53;;;;;;;;;;4976257;28;20225;-75
2021/12/03 05:08:07;;;;;;;1.13;0.60;;;;;;;;;;4977042;28;20223;-74
2021/12/03 05:10:37;;;;;;;0.83;0.70;;;;;;;;;;4974605;28;20212;-77
2021/12/03 05:13:07;;;;;;;1.50;0.60;;;;;;;;;;4975954;28;20284;-78
2021/12/03 05:15:37;;;;;;;1.00;0.67;;;;;;;;;;4976200;28;20208;-77
2021/12/03 05:18:06;;;;;;;1.60;0.73;;;;;;;;;;4969360;28;20232;-75
2021/12/03 05:20:34;;;;;;;0.60;0.60;;;;;;;;;;4975735;28;20203;-78
2021/12/03 05:23:04;;;;;;;2.23;0.67;;;;;;;;;;4975547;28;20666;-77
2021/12/03 05:25:33;;;;;;;1.20;0.83;;;;;;;;;;4975724;28;20239;-77
2021/12/03 05:28:02;;;;;;;1.10;0.73;;;;;;;;;;4975618;28;20229;-75
2021/12/03 05:30:31;;;;;;;0.67;0.67;;;;;;;;;;4976296;28;20263;-76
2021/12/03 05:33:01;;;;;;;1.33;0.83;;;;;;;;;;4975406;28;20560;-78
2021/12/03 05:35:29;;;;;;;1.80;1.03;;;;;;;;;;4976916;28;20204;-78
2021/12/03 05:37:58;;;;;;;0.73;0.60;;;;;;;;;;4975350;28;20265;-76
2021/12/03 05:40:29;;;;;;;1.67;0.87;;;;;;;;;;4971525;28;20670;-75
2021/12/03 05:42:58;;;;;;;0.97;0.73;;;;;;;;;;4958853;28;20212;-76
2021/12/03 05:45:28;;;;;;;0.43;0.30;;;;;;;;;;4975667;28;20224;-78
2021/12/03 05:47:57;;;;;;;2.33;0.93;;;;;;;;;;4975334;28;20693;-77
2021/12/03 05:50:27;;;;;;;2.33;0.77;;;;;;;;;;4975375;28;20214;-75
2021/12/03 05:52:58;;;;;;;2.47;1.30;;;;;;;;;;4973825;28;20219;-75
2021/12/03 05:55:27;;;;;;;1.80;1.03;;;;;;;;;;4973466;28;20214;-77
2021/12/03 05:57:55;;;;;;;1.17;0.87;;;;;;;;;;4974022;28;20220;-77
2021/12/03 06:00:27;;;;;;;1.90;0.97;;;;;;;;;;4971214;28;20208;-79
2021/12/03 06:02:57;;;;;;;1.80;1.30;;;;;;;;;;4975849;28;20292;-76
2021/12/03 06:05:28;;;;;;;3.13;1.33;;;;;;;;;;4974720;28;20314;-75
2021/12/03 06:07:57;;;;;;;3.83;1.50;;;;;;;;;;4971400;28;20221;-77
2021/12/03 06:10:26;;;;;;;3.00;1.13;;;;;;;;;;4973961;28;20208;-76
2021/12/03 06:12:55;;;;;;;1.90;1.23;;;;;;;;;;4970842;28;20215;-76
2021/12/03 06:15:24;;;;;;;2.77;1.13;;;;;;;;;;4972377;28;20224;-82
2021/12/03 06:17:53;;;;;;;1.73;1.17;;;;;;;;;;4972357;28;20232;-76
2021/12/03 06:20:21;;;;;;;2.23;1.37;;;;;;;;;;4971924;28;20568;-79
2021/12/03 06:22:51;;;;;;;1.90;0.97;;;;;;;;;;4973635;28;20218;-81
2021/12/03 06:25:20;;;;;;;1.20;0.67;;;;;;;;;;4971033;28;20232;-82
2021/12/03 06:27:54;;;;;;;1.60;0.97;;;;;;;;;;4971387;28;20220;-79
2021/12/03 06:30:24;;;;;;;1.90;1.20;;;;;;;;;;4968348;28;20207;-77
2021/12/03 06:32:53;;;;;;;1.40;0.87;;;;;;;;;;4964000;28;20228;-80
2021/12/03 06:35:21;;;;;;;2.53;1.40;;;;;;;;;;4967058;28;20205;-82
2021/12/03 06:37:51;;;;;;;2.73;1.10;;;;;;;;;;4972894;28;20263;-80
2021/12/03 06:40:22;;;;;;;1.60;0.73;;;;;;;;;;4964413;28;20261;-78
2021/12/03 06:42:51;;;;;;;1.60;1.07;;;;;;;;;;4968718;28;20194;-79
2021/12/03 06:45:20;;;;;;;2.37;1.20;;;;;;;;;;4965637;28;20764;-82
2021/12/03 06:47:48;;;;;;;3.00;1.13;;;;;;;;;;4975678;28;20229;-79
2021/12/03 06:50:20;;;;;;;1.83;0.87;;;;;;;;;;4975261;28;20665;-79
2021/12/03 06:52:53;;;;;;;3.40;1.07;;;;;;;;;;4975391;28;20213;-79
2021/12/03 06:55:23;;;;;;;1.43;0.93;;;;;;;;;;4974009;28;20697;-78
2021/12/03 06:57:52;;;;;;;1.13;1.03;;;;;;;;;;4973959;28;20720;-80
2021/12/03 07:00:22;;;;;;;2.47;0.93;;;;;;;;;;4975053;28;20213;-81
2021/12/03 07:02:50;;;;;;;1.03;0.77;;;;;;;;;;4975080;28;20216;-78
2021/12/03 07:05:19;;;;;;;1.97;1.10;;;;;;;;;;4975306;28;20295;-81
2021/12/03 07:07:48;;;;;;;1.60;0.83;;;;;;;;;;4975055;28;20252;-81
2021/12/03 07:10:16;;;;;;;1.50;0.93;;;;;;;;;;4974521;28;20211;-79
2021/12/03 07:12:46;;;;;;;1.23;0.67;;;;;;;;;;4974672;28;20238;-81
2021/12/03 07:15:15;;;;;;;1.60;1.03;;;;;;;;;;4975211;28;20534;-84
2021/12/03 07:17:43;;;;;;;1.03;0.73;;;;;;;;;;4974277;28;20780;-77
2021/12/03 07:20:12;;;;;;;1.07;0.60;;;;;;;;;;4974926;28;20205;-83
2021/12/03 07:22:41;;;;;;;1.33;0.73;;;;;;;;;;4974962;28;20220;-80
2021/12/03 07:25:10;;;;;;;1.10;0.63;;;;;;;;;;4974737;28;20716;-80
2021/12/03 07:27:38;;;;;;;1.60;0.87;;;;;;;;;;4974771;28;20236;-86
2021/12/03 07:30:10;;;;;;;1.70;0.87;;;;;;;;;;4975079;28;20209;-79
2021/12/03 07:32:38;;;;;;;0.67;0.53;;;;;;;;;;4974478;28;20201;-77
2021/12/03 07:35:08;;;;;;;1.60;0.93;;;;;;;;;;4974819;28;20217;-79
2021/12/03 07:37:36;;;;;;;1.17;0.63;;;;;;;;;;4974570;28;20230;-79
2021/12/03 07:40:06;;;;;;;1.07;0.67;;;;;;;;;;4974530;28;20213;-80
2021/12/03 07:42:35;;;;;;;1.90;0.77;;;;;;;;;;4974576;28;20209;-78
2021/12/03 07:45:06;;;;;;;1.40;0.77;;;;;;;;;;4974384;28;20220;-78
2021/12/03 07:47:35;;;;;;;2.03;0.63;;;;;;;;;;4974093;28;20236;-80
2021/12/03 07:50:05;;;;;;;1.03;0.87;;;;;;;;;;4974465;28;20220;-80
2021/12/03 07:52:34;;;;;;;1.40;0.77;;;;;;;;;;4955108;28;20219;-78
2021/12/03 07:55:02;;;;;;;1.23;0.67;;;;;;;;;;4970875;28;20209;-78
2021/12/03 07:57:31;;;;;;;0.83;0.73;;;;;;;;;;4973559;28;20229;-79
2021/12/03 07:59:59;;;;;;;0.73;0.60;;;;;;;;;;4973727;28;20226;-77
2021/12/03 08:02:28;;;;;;;0.87;0.77;;;;;;;;;;4973598;28;20216;-79
2021/12/03 08:04:58;;;;;;;1.33;0.70;;;;;;;;;;4974454;28;20205;-79
2021/12/03 08:07:27;;;;;;;1.07;0.63;;;;;;;;;;4974096;28;20247;-78
2021/12/03 08:09:55;;;;;;;0.73;0.50;;;;;;;;;;4974441;28;20209;-76
2021/12/03 08:12:24;;;;;;;0.73;0.57;;;;;;;;;;4973831;28;20221;-77
2021/12/03 08:14:52;;;;;;;1.20;0.67;;;;;;;;;;4973690;28;20212;-80
2021/12/03 08:17:21;;;;;;;2.33;0.77;;;;;;;;;;4974060;28;20219;-81
2021/12/03 08:19:49;;;;;;;0.83;0.57;;;;;;;;;;4974461;28;20217;-83
2021/12/03 08:22:20;;;;;;;1.13;0.83;;;;;;;;;;4973732;28;20227;-80
2021/12/03 08:24:49;;;;;;;0.87;0.77;;;;;;;;;;4968740;28;20214;-80
2021/12/03 08:27:17;;;;;;;0.77;0.50;;;;;;;;;;4960865;28;20217;-79
2021/12/03 08:29:46;;;;;;;0.63;0.57;;;;;;;;;;4976023;28;20232;-78
2021/12/03 08:32:15;;;;;;;1.13;0.77;;;;;;;;;;4977371;28;20569;-81
2021/12/03 08:34:43;;;;;;;1.20;0.97;;;;;;;;;;4978092;28;20206;-79
2021/12/03 08:37:12;;;;;;;0.83;0.60;;;;;;;;;;4977685;28;20213;-80
2021/12/03 08:39:42;;;;;;;1.50;0.70;;;;;;;;;;4977935;28;20654;-77
2021/12/03 08:42:12;;;;;;;1.33;0.57;;;;;;;;;;4977057;28;20206;-78
2021/12/03 08:44:41;;;;;;;0.63;0.47;;;;;;;;;;4976912;28;20546;-77
2021/12/03 08:47:09;;;;;;;1.40;0.77;;;;;;;;;;4976693;28;20233;-77
2021/12/03 08:49:39;;;;;;;1.50;0.43;;;;;;;;;;4973140;28;20206;-78
2021/12/03 08:52:33;;;;;;;1.50;0.40;;;;;;;;;;4976553;28;20198;-77
2021/12/03 08:55:01;;;;;;;0.73;0.47;;;;;;;;;;4975481;28;20219;-78
2021/12/03 08:57:32;;;;;;;2.47;1.30;;;;;;;;;;4976052;28;20221;-76
2021/12/03 09:00:01;;;;;;;1.03;0.73;;;;;;;;;;4975306;28;20209;-79
2021/12/03 09:02:30;;;;;;;0.60;0.40;;;;;;;;;;4976257;28;20198;-77
2021/12/03 09:04:58;;;;;;;0.57;0.50;;;;;;;;;;4975485;28;20271;-78
2021/12/03 09:07:27;;;;;;;0.00;0.00;;;;;;;;;;4976741;28;20309;-79
2021/12/03 09:09:56;;;;;;;1.13;0.30;;;;;;;;;;4976847;28;20198;-77
2021/12/03 09:12:25;;;;;;;0.00;0.00;;;;;;;;;;4973174;28;20576;-78
2021/12/03 09:14:56;;;;;;;0.00;0.00;;;;;;;;;;4976825;28;20668;-78
2021/12/03 09:17:34;;;;;;;1.03;0.77;;;;;;;;;;4976934;28;20344;-79
2021/12/03 09:20:11;;;;;;;0.93;0.43;;;;;;;;;;4976600;28;20197;-77
2021/12/03 09:22:42;;;;;;;0.87;0.57;;;;;;;;;;4957638;29;20222;-77
2021/12/03 09:25:13;;;;;;;0.20;0.20;;;;;;;;;;4972960;28;20205;-76
2021/12/03 09:27:43;;;;;;;1.30;0.57;;;;;;;;;;4976603;28;20225;-76
2021/12/03 09:30:14;;;;;;;1.10;0.63;;;;;;;;;;4976874;28;20197;-79
2021/12/03 09:32:47;;;;;;;1.03;0.63;;;;;;;;;;4957341;29;20210;-79
2021/12/03 09:35:16;;;;;;;1.00;0.40;;;;;;;;;;4969621;28;20297;-76
2021/12/03 09:37:44;;;;;;;0.33;0.30;;;;;;;;;;4976477;28;20225;-76
2021/12/03 09:40:21;;;;;;;0.40;0.30;;;;;;;;;;4976320;28;20210;-77
2021/12/03 09:42:50;;;;;;;1.17;0.40;;;;;;;;;;4976160;28;20210;-76
2021/12/03 09:45:19;;;;;;;0.33;0.30;;;;;;;;;;4976658;28;20226;-77
2021/12/03 09:47:49;;;;;;;0.30;0.27;;;;;;;;;;4975894;28;20226;-77
2021/12/03 09:50:17;;;;;;;1.03;0.20;;;;;;;;;;4976086;28;20667;-76
2021/12/03 09:52:59;;;;;;;0.57;0.40;;;;;;;;;;4976045;28;20844;-76
2021/12/03 09:55:28;;;;;;;0.30;0.20;;;;;;;;;;4976662;28;20229;-76
2021/12/03 09:58:06;;;;;;;0.30;0.30;;;;;;;;;;4975592;28;20226;-78
2021/12/03 10:00:38;;;;;;;0.37;0.37;;;;;;;;;;4975655;28;20569;-77
2021/12/03 10:03:19;;;;;;;0.20;0.20;;;;;;;;;;4976520;28;20214;-77
2021/12/03 10:14:46;;;;;;;0.20;0.20;;;;;;;;;;4951660;28;20224;-78
2021/12/03 10:20:13;;;;;;;0.57;0.33;;;;;;;;;;4975710;28;20210;-77
2021/12/03 10:31:54;;;;;;;0.60;0.40;;;;;;;;;;4958948;28;20246;-77
2021/12/03 10:34:40;;;;;;;0.30;0.30;;;;;;;;;;4975531;28;20206;-76
2021/12/03 10:37:27;;;;;;;0.67;0.20;;;;;;;;;;4975553;28;20229;-75
2021/12/03 10:40:01;;;;;;;0.50;0.33;;;;;;;;;;4975228;28;20624;-76
2021/12/03 10:42:40;;;;;;;0.93;0.57;;;;;;;;;;4975245;28;20670;-76
2021/12/03 10:48:12;;;;;;;0.83;0.47;;;;;;;;;;4948281;28;20286;-77
2021/12/03 10:50:48;;;;;;;1.33;0.63;;;;;;;;;;4956622;29;20258;-77
2021/12/03 10:53:29;;;;;;;0.47;0.33;;;;;;;;;;4960636;28;20206;-76
2021/12/03 11:19:17;;;;;;;0.50;0.27;;;;;;;;;;4943038;28;20207;-76
2021/12/03 11:36:14;;;;;;;0.00;0.00;;;;;;;;;;4975785;28;20707;-77
2021/12/03 14:51:54;;;;;;;0.00;0.00;;;;;;;;;;4988845;28;20214;-77
2021/12/03 14:54:37;;;;;;;0.00;0.00;;;;;;;;;;4989955;28;20202;-77
2021/12/03 14:57:11;;;;;;;0.00;0.00;;;;;;;;;;4981592;28;20279;-76
2021/12/03 14:59:43;;;;;;;0.00;0.00;;;;;;;;;;4970204;28;20202;-76
2021/12/03 15:02:22;;;;;;;0.00;0.00;;;;;;;;;;4969166;28;20214;-75
2021/12/03 15:05:12;;;;;;;0.00;0.00;;;;;;;;;;4968243;28;20571;-75
2021/12/03 15:07:43;;;;;;;0.00;0.00;;;;;;;;;;4954995;28;20613;-76
2021/12/03 15:10:19;;;;;;;0.00;0.00;;;;;;;;;;4954187;28;20215;-77
2021/12/03 15:13:22;;;;;;;0.00;0.00;;;;;;;;;;4964033;28;20230;-79
2021/12/03 15:19:00;;;;;;;0.00;0.00;;;;;;;;;;4968434;28;20749;-77
2021/12/03 15:24:54;;;;;;;0.00;0.00;;;;;;;;;;4911403;29;20217;-79
2021/12/03 15:33:07;;;;;;;0.00;0.00;;;;;;;;;;4964801;28;20213;-78
2021/12/03 15:35:45;;;;;;;0.00;0.00;;;;;;;;;;4966292;28;20202;-79
2021/12/03 15:38:29;;;;;;;0.00;0.00;;;;;;;;;;4968633;28;20230;-76
2021/12/03 16:03:43;;;;;;;0.00;0.00;;;;;;;;;;4964658;28;20215;-77
2021/12/03 16:06:32;;;;;;;0.00;0.00;;;;;;;;;;4970587;28;20209;-77
2021/12/03 16:11:55;;;;;;;0.00;0.00;;;;;;;;;;4953228;28;20220;-76
2021/12/03 16:20:30;;;;;;;0.00;0.00;;;;;;;;;;4901655;29;20604;-77
2021/12/03 16:26:13;;;;;;;0.00;0.00;;;;;;;;;;4955395;28;20295;-76
2021/12/03 16:45:28;;;;;;;0.10;0.10;;;;;;;;;;4968694;28;20640;-77
2021/12/03 16:48:29;;;;;;;0.33;0.00;;;;;;;;;;4966510;28;20322;-79
2021/12/03 16:51:15;;;;;;;0.00;0.00;;;;;;;;;;4958196;28;20234;-76
2021/12/03 16:53:47;;;;;;;0.00;0.00;;;;;;;;;;4969495;28;20253;-81
2021/12/03 16:56:24;;;;;;;0.00;0.00;;;;;;;;;;4969403;28;20227;-75
2021/12/03 16:58:53;;;;;;;0.00;0.00;;;;;;;;;;4971530;28;20219;-79
2021/12/03 17:01:26;;;;;;;0.00;0.00;;;;;;;;;;4968191;28;20203;-77
2021/12/03 17:03:58;;;;;;;0.00;0.00;;;;;;;;;;4969539;28;20220;-75
2021/12/03 17:12:21;;;;;;;0.00;0.00;;;;;;;;;;4949296;28;20214;-76
2021/12/03 17:15:01;;;;;;;0.00;0.00;;;;;;;;;;4966635;28;20363;-77
2021/12/03 17:51:57;;;;;;;0.00;0.00;;;;;;;;;;4967641;28;20626;-76
2021/12/03 17:54:39;;;;;;;0.00;0.00;;;;;;;;;;4968060;28;20210;-74
2021/12/03 17:57:13;;;;;;;0.00;0.00;;;;;;;;;;4962148;28;20764;-74
2021/12/03 17:59:47;;;;;;;0.00;0.00;;;;;;;;;;4962534;28;20211;-76
2021/12/03 18:02:35;;;;;;;0.10;0.10;;;;;;;;;;4969614;28;20274;-75
2021/12/03 18:05:18;;;;;;;0.00;0.00;;;;;;;;;;4968071;28;20204;-80
2021/12/03 18:08:10;;;;;;;0.00;0.00;;;;;;;;;;4969600;28;20601;-75
2021/12/03 18:17:32;;;;;;;0.00;0.00;;;;;;;;;;4967643;28;20232;-77
2021/12/03 18:48:40;;;;;;;0.00;0.00;;;;;;;;;;4905690;29;20236;-77
2021/12/03 18:51:26;;;;;;;0.00;0.00;;;;;;;;;;4906248;29;20222;-79
2021/12/03 18:56:43;;;;;;;0.00;0.00;;;;;;;;;;4962373;28;20235;-76
2021/12/03 18:59:11;;;;;;;0.00;0.00;;;;;;;;;;4971644;28;20209;-75
2021/12/03 19:01:44;;;;;;;0.00;0.00;;;;;;;;;;4972462;28;20207;-77
2021/12/03 19:04:19;;;;;;;0.00;0.00;;;;;;;;;;4970533;28;20201;-77
2021/12/03 19:06:51;;;;;;;0.00;0.00;;;;;;;;;;4970048;28;20221;-76
2021/12/03 19:09:24;;;;;;;0.00;0.00;;;;;;;;;;4971783;28;20199;-76
2021/12/03 19:11:58;;;;;;;0.00;0.00;;;;;;;;;;4971121;28;20217;-75
2021/12/03 19:14:29;;;;;;;0.00;0.00;;;;;;;;;;4970813;28;20206;-78
2021/12/03 19:16:58;;;;;;;0.00;0.00;;;;;;;;;;4971280;28;20600;-77
2021/12/03 19:19:30;;;;;;;0.00;0.00;;;;;;;;;;4971732;28;20206;-77
2021/12/03 19:22:00;;;;;;;0.00;0.00;;;;;;;;;;4970504;28;20210;-81
2021/12/03 19:24:29;;;;;;;0.00;0.00;;;;;;;;;;4965142;28;20215;-77
2021/12/03 19:26:58;;;;;;;0.00;0.00;;;;;;;;;;4971818;28;20720;-76
2021/12/03 19:29:27;;;;;;;0.00;0.00;;;;;;;;;;4970429;28;20267;-75
2021/12/03 19:31:56;;;;;;;0.00;0.00;;;;;;;;;;4969992;28;20230;-79
2021/12/03 19:34:25;;;;;;;0.00;0.00;;;;;;;;;;4968354;28;20223;-78
2021/12/03 19:36:57;;;;;;;0.00;0.00;;;;;;;;;;4968942;28;20282;-77
2021/12/03 19:39:26;;;;;;;0.00;0.00;;;;;;;;;;4970067;28;20210;-78
2021/12/03 19:42:01;;;;;;;0.00;0.00;;;;;;;;;;4968713;28;20209;-76
2021/12/03 19:44:36;;;;;;;0.00;0.00;;;;;;;;;;4968990;28;20219;-78
2021/12/03 19:47:06;;;;;;;0.00;0.00;;;;;;;;;;4970613;28;20574;-77
2021/12/03 19:49:46;;;;;;;0.00;0.00;;;;;;;;;;4968820;28;20618;-74
2021/12/03 19:52:25;;;;;;;0.00;0.00;;;;;;;;;;4968720;28;20222;-77
2021/12/03 19:54:59;;;;;;;0.00;0.00;;;;;;;;;;4962316;28;20213;-76
2021/12/03 19:57:30;;;;;;;0.00;0.00;;;;;;;;;;4970585;28;20644;-75
2021/12/03 20:00:08;;;;;;;0.00;0.00;;;;;;;;;;4971645;28;20881;-76
2021/12/03 20:02:38;;;;;;;0.00;0.00;;;;;;;;;;4963716;28;20211;-77
2021/12/03 20:05:07;;;;;;;0.00;0.00;;;;;;;;;;4966488;28;20573;-76
2021/12/03 20:07:38;;;;;;;0.00;0.00;;;;;;;;;;4970660;28;20230;-74
2021/12/03 20:10:10;;;;;;;0.00;0.00;;;;;;;;;;4969721;28;20210;-75
2021/12/03 20:12:40;;;;;;;0.00;0.00;;;;;;;;;;4970839;28;20217;-74
2021/12/03 20:15:12;;;;;;;0.00;0.00;;;;;;;;;;4970343;28;20209;-75
2021/12/03 20:17:46;;;;;;;0.00;0.00;;;;;;;;;;4970579;28;20236;-77
2021/12/03 20:20:14;;;;;;;0.00;0.00;;;;;;;;;;4960584;28;20534;-77
2021/12/03 20:22:49;;;;;;;0.00;0.00;;;;;;;;;;4968702;28;20224;-78
2021/12/03 20:28:07;;;;;;;0.00;0.00;;;;;;;;;;4964546;28;20238;-78
2021/12/03 20:30:39;;;;;;;0.00;0.00;;;;;;;;;;4974767;28;20214;-74
2021/12/03 20:33:24;;;;;;;0.00;0.00;;;;;;;;;;4973520;28;20309;-75
2021/12/03 20:36:21;;;;;;;0.00;0.00;;;;;;;;;;4973944;28;20273;-73
2021/12/03 20:38:55;;;;;;;0.00;0.00;;;;;;;;;;4965136;28;20210;-77
2021/12/03 20:41:36;;;;;;;0.00;0.00;;;;;;;;;;4974138;28;20198;-77
2021/12/03 20:44:15;;;;;;;0.00;0.00;;;;;;;;;;4974815;28;20218;-77
2021/12/03 20:46:52;;;;;;;0.10;0.10;;;;;;;;;;4972210;28;20311;-78
2021/12/03 20:49:30;;;;;;;0.00;0.00;;;;;;;;;;4970865;28;20300;-77
2021/12/03 20:57:13;;;;;;;0.00;0.00;;;;;;;;;;4965546;28;20210;-74
2021/12/03 21:08:42;;;;;;;0.00;0.00;;;;;;;;;;4972852;28;20202;-75
2021/12/03 21:11:19;;;;;;;0.00;0.00;;;;;;;;;;4970594;28;20207;-78
2021/12/03 21:13:49;;;;;;;0.00;0.00;;;;;;;;;;4972007;28;20270;-74
2021/12/03 21:16:43;;;;;;;0.00;0.00;;;;;;;;;;4972467;28;20686;-75
2021/12/03 21:19:27;;;;;;;0.00;0.00;;;;;;;;;;4954165;29;20664;-75
2021/12/03 21:21:58;;;;;;;0.00;0.00;;;;;;;;;;4961008;28;20916;-73
2021/12/03 21:24:32;;;;;;;0.00;0.00;;;;;;;;;;4971965;28;20203;-75
2021/12/03 21:27:07;;;;;;;0.00;0.00;;;;;;;;;;4967992;28;20612;-75
2021/12/03 21:32:40;;;;;;;0.00;0.00;;;;;;;;;;5090058;27;20571;-77
2021/12/03 21:38:23;;;;;;;0.00;0.00;;;;;;;;;;5077616;28;20233;-75
2021/12/03 21:41:19;;;;;;;0.00;0.00;;;;;;;;;;5081533;28;20213;-76
2021/12/03 21:43:48;;;;;;;0.00;0.00;;;;;;;;;;5086415;28;20202;-74
2021/12/03 21:46:18;;;;;;;0.00;0.00;;;;;;;;;;5083710;28;20216;-76
2021/12/03 21:48:48;;;;;;;0.00;0.00;;;;;;;;;;5090537;28;20199;-76
2021/12/03 21:51:17;;;;;;;0.00;0.00;;;;;;;;;;5088759;28;20703;-76
2021/12/03 21:53:45;;;;;;;0.00;0.00;;;;;;;;;;5089960;28;20198;-76
2021/12/03 21:56:14;;;;;;;0.07;0.07;;;;;;;;;;5073317;28;20266;-76
2021/12/03 21:58:42;;;;;;;0.00;0.00;;;;;;;;;;5092517;28;20213;-75
2021/12/03 22:01:11;;;;;;;0.00;0.00;;;;;;;;;;5083647;28;20204;-75
2021/12/03 22:03:40;;;;;;;0.00;0.00;;;;;;;;;;5100535;28;20683;-75
2021/12/03 22:06:09;;;;;;;0.00;0.00;;;;;;;;;;5087757;28;20213;-75